Cottonwood, South Dakota
Current Conditions -  °F | °C
As of 2:55 AM on Thursday 23 Oct 2014 (Local Time) from KPHP Reporting Station
Clear Clear  
Wind Chill: 32°   Ceiling: Unl
Heat Index: 32°   Visibility: 10mi
Dew Point: 28°   Wind: 3mph
Humidity: 85%   Direction: 250°WSW
Pressure: 30"   Gusts: NA
Location:  44.0813°N, 102.067°W
Report Text: KPHP 230855Z AUTO 25003KT 10SM CLR 00/M02 A3000 RMK AO2 SLP159 T00001022 58006
Loading
Personal Weather Stations






























Interactive Weather Map
Tropical Storm Tracking
New forecast layout! Learn more

10-Day Weather Forecast

Advertisements
Track Severe Weather on mobile